sensor_id;sensor_type;location;lat;lon;timestamp;P1;durP1;ratioP1;P2;durP2;ratioP2
34695;SDS011;20918;51.138;17.370;2023-12-04T00:00:35;55.90;;;27.90;;
34695;SDS011;20918;51.138;17.370;2023-12-04T00:03:36;55.20;;;26.20;;
34695;SDS011;20918;51.138;17.370;2023-12-04T00:06:37;55.50;;;27.30;;
34695;SDS011;20918;51.138;17.370;2023-12-04T00:09:37;55.40;;;26.80;;
34695;SDS011;20918;51.138;17.370;2023-12-04T00:12:38;51.90;;;24.50;;
34695;SDS011;20918;51.138;17.370;2023-12-04T00:15:38;45.00;;;22.70;;
34695;SDS011;20918;51.138;17.370;2023-12-04T00:18:39;51.00;;;26.80;;
34695;SDS011;20918;51.138;17.370;2023-12-04T00:21:39;51.90;;;26.30;;
34695;SDS011;20918;51.138;17.370;2023-12-04T00:24:40;55.80;;;27.10;;
34695;SDS011;20918;51.138;17.370;2023-12-04T00:27:40;52.60;;;26.90;;
34695;SDS011;20918;51.138;17.370;2023-12-04T00:30:41;54.80;;;26.80;;
34695;SDS011;20918;51.138;17.370;2023-12-04T00:33:42;53.20;;;25.60;;
34695;SDS011;20918;51.138;17.370;2023-12-04T00:36:42;46.50;;;22.50;;
34695;SDS011;20918;51.138;17.370;2023-12-04T00:39:43;43.20;;;21.50;;
34695;SDS011;20918;51.138;17.370;2023-12-04T00:42:43;41.90;;;19.80;;
34695;SDS011;20918;51.138;17.370;2023-12-04T00:45:44;43.40;;;19.90;;
34695;SDS011;20918;51.138;17.370;2023-12-04T00:48:44;34.20;;;16.80;;
34695;SDS011;20918;51.138;17.370;2023-12-04T00:51:46;48.60;;;21.70;;
34695;SDS011;20918;51.138;17.370;2023-12-04T00:54:46;40.80;;;21.20;;
34695;SDS011;20918;51.138;17.370;2023-12-04T01:09:05;42.70;;;20.20;;
34695;SDS011;20918;51.138;17.370;2023-12-04T01:12:06;45.30;;;20.20;;
34695;SDS011;20918;51.138;17.370;2023-12-04T01:15:06;47.70;;;21.80;;
34695;SDS011;20918;51.138;17.370;2023-12-04T01:18:07;49.80;;;21.80;;
34695;SDS011;20918;51.138;17.370;2023-12-04T01:21:08;46.00;;;21.70;;
34695;SDS011;20918;51.138;17.370;2023-12-04T01:24:09;38.70;;;19.10;;
34695;SDS011;20918;51.138;17.370;2023-12-04T01:27:09;38.70;;;19.10;;
34695;SDS011;20918;51.138;17.370;2023-12-04T01:30:11;46.30;;;20.30;;
34695;SDS011;20918;51.138;17.370;2023-12-04T01:33:12;49.30;;;23.10;;
34695;SDS011;20918;51.138;17.370;2023-12-04T01:36:13;45.70;;;20.70;;
34695;SDS011;20918;51.138;17.370;2023-12-04T01:39:13;47.70;;;23.90;;
34695;SDS011;20918;51.138;17.370;2023-12-04T01:42:14;46.10;;;21.10;;
34695;SDS011;20918;51.138;17.370;2023-12-04T01:45:15;38.40;;;18.80;;
34695;SDS011;20918;51.138;17.370;2023-12-04T01:48:15;47.80;;;23.20;;
34695;SDS011;20918;51.138;17.370;2023-12-04T01:51:16;44.40;;;20.40;;
34695;SDS011;20918;51.138;17.370;2023-12-04T01:54:18;43.70;;;20.20;;
34695;SDS011;20918;51.138;17.370;2023-12-04T01:57:19;36.50;;;17.30;;
34695;SDS011;20918;51.138;17.370;2023-12-04T02:00:20;35.70;;;18.30;;
34695;SDS011;20918;51.138;17.370;2023-12-04T02:03:21;43.50;;;20.40;;
34695;SDS011;20918;51.138;17.370;2023-12-04T02:06:21;56.20;;;27.50;;
34695;SDS011;20918;51.138;17.370;2023-12-04T02:09:22;52.50;;;25.50;;
34695;SDS011;20918;51.138;17.370;2023-12-04T02:12:23;54.60;;;26.20;;
34695;SDS011;20918;51.138;17.370;2023-12-04T02:18:24;44.60;;;22.40;;
34695;SDS011;20918;51.138;17.370;2023-12-04T02:21:25;55.90;;;25.30;;
34695;SDS011;20918;51.138;17.370;2023-12-04T02:24:25;40.80;;;20.70;;
34695;SDS011;20918;51.138;17.370;2023-12-04T02:30:37;55.80;;;24.30;;
34695;SDS011;20918;51.138;17.370;2023-12-04T02:33:41;46.80;;;21.40;;
34695;SDS011;20918;51.138;17.370;2023-12-04T02:36:45;46.20;;;22.40;;
34695;SDS011;20918;51.138;17.370;2023-12-04T02:39:46;39.20;;;20.00;;
34695;SDS011;20918;51.138;17.370;2023-12-04T02:42:48;41.30;;;20.40;;
34695;SDS011;20918;51.138;17.370;2023-12-04T02:45:49;42.00;;;21.30;;
34695;SDS011;20918;51.138;17.370;2023-12-04T02:48:52;47.60;;;20.30;;
34695;SDS011;20918;51.138;17.370;2023-12-04T02:51:54;42.50;;;20.90;;
34695;SDS011;20918;51.138;17.370;2023-12-04T02:54:54;45.90;;;21.70;;
34695;SDS011;20918;51.138;17.370;2023-12-04T02:57:55;53.10;;;24.90;;
34695;SDS011;20918;51.138;17.370;2023-12-04T03:00:55;55.30;;;24.10;;
34695;SDS011;20918;51.138;17.370;2023-12-04T03:03:55;58.00;;;24.30;;
34695;SDS011;20918;51.138;17.370;2023-12-04T03:06:56;57.70;;;27.80;;
34695;SDS011;20918;51.138;17.370;2023-12-04T03:09:57;58.00;;;25.50;;
34695;SDS011;20918;51.138;17.370;2023-12-04T03:12:57;51.50;;;25.30;;
34695;SDS011;20918;51.138;17.370;2023-12-04T03:15:58;48.60;;;23.90;;
34695;SDS011;20918;51.138;17.370;2023-12-04T03:18:58;57.70;;;27.20;;
34695;SDS011;20918;51.138;17.370;2023-12-04T03:25:00;59.10;;;27.30;;
34695;SDS011;20918;51.138;17.370;2023-12-04T03:28:00;54.10;;;26.10;;
34695;SDS011;20918;51.138;17.370;2023-12-04T03:31:01;46.70;;;22.60;;
34695;SDS011;20918;51.138;17.370;2023-12-04T03:34:02;51.90;;;23.60;;
34695;SDS011;20918;51.138;17.370;2023-12-04T03:37:03;51.90;;;24.20;;
34695;SDS011;20918;51.138;17.370;2023-12-04T03:43:04;49.70;;;22.00;;
34695;SDS011;20918;51.138;17.370;2023-12-04T03:46:05;46.00;;;20.90;;
34695;SDS011;20918;51.138;17.370;2023-12-04T03:52:06;41.20;;;22.10;;
34695;SDS011;20918;51.138;17.370;2023-12-04T03:55:06;41.10;;;20.80;;
34695;SDS011;20918;51.138;17.370;2023-12-04T03:58:08;42.30;;;20.30;;
34695;SDS011;20918;51.138;17.370;2023-12-04T04:04:09;45.40;;;21.00;;
34695;SDS011;20918;51.138;17.370;2023-12-04T04:07:09;51.10;;;21.90;;
34695;SDS011;20918;51.138;17.370;2023-12-04T04:10:10;45.70;;;21.60;;
34695;SDS011;20918;51.138;17.370;2023-12-04T04:13:11;45.80;;;20.90;;
34695;SDS011;20918;51.138;17.370;2023-12-04T04:16:14;46.20;;;20.80;;
34695;SDS011;20918;51.138;17.370;2023-12-04T04:19:16;54.80;;;22.60;;
34695;SDS011;20918;51.138;17.370;2023-12-04T04:22:16;43.00;;;20.20;;
34695;SDS011;20918;51.138;17.370;2023-12-04T04:25:17;44.70;;;19.90;;
34695;SDS011;20918;51.138;17.370;2023-12-04T04:28:18;43.10;;;21.10;;
34695;SDS011;20918;51.138;17.370;2023-12-04T04:31:19;55.30;;;24.80;;
34695;SDS011;20918;51.138;17.370;2023-12-04T04:34:20;44.60;;;22.20;;
34695;SDS011;20918;51.138;17.370;2023-12-04T04:37:21;56.90;;;25.80;;
34695;SDS011;20918;51.138;17.370;2023-12-04T04:43:22;49.30;;;23.20;;
34695;SDS011;20918;51.138;17.370;2023-12-04T04:46:22;55.80;;;25.40;;
34695;SDS011;20918;51.138;17.370;2023-12-04T04:49:25;47.00;;;23.10;;
34695;SDS011;20918;51.138;17.370;2023-12-04T04:52:26;44.80;;;21.20;;
34695;SDS011;20918;51.138;17.370;2023-12-04T04:58:27;47.70;;;22.40;;
34695;SDS011;20918;51.138;17.370;2023-12-04T05:01:27;48.40;;;21.90;;
34695;SDS011;20918;51.138;17.370;2023-12-04T05:04:28;42.50;;;20.80;;
34695;SDS011;20918;51.138;17.370;2023-12-04T05:07:28;51.10;;;22.80;;
34695;SDS011;20918;51.138;17.370;2023-12-04T05:10:29;48.90;;;21.60;;
34695;SDS011;20918;51.138;17.370;2023-12-04T05:16:30;50.10;;;23.20;;
34695;SDS011;20918;51.138;17.370;2023-12-04T05:19:30;52.20;;;23.50;;
34695;SDS011;20918;51.138;17.370;2023-12-04T05:22:31;52.00;;;20.20;;
34695;SDS011;20918;51.138;17.370;2023-12-04T05:25:31;53.10;;;22.80;;
34695;SDS011;20918;51.138;17.370;2023-12-04T05:31:33;54.30;;;26.20;;
34695;SDS011;20918;51.138;17.370;2023-12-04T05:34:33;55.40;;;25.30;;
34695;SDS011;20918;51.138;17.370;2023-12-04T05:37:34;70.50;;;29.30;;
34695;SDS011;20918;51.138;17.370;2023-12-04T05:43:34;99.90;;;39.80;;
34695;SDS011;20918;51.138;17.370;2023-12-04T05:46:35;101.80;;;41.00;;
34695;SDS011;20918;51.138;17.370;2023-12-04T05:49:35;104.80;;;41.10;;
34695;SDS011;20918;51.138;17.370;2023-12-04T05:55:37;107.90;;;43.90;;
34695;SDS011;20918;51.138;17.370;2023-12-04T05:58:37;104.90;;;43.50;;
34695;SDS011;20918;51.138;17.370;2023-12-04T06:04:38;102.90;;;41.30;;
34695;SDS011;20918;51.138;17.370;2023-12-04T06:07:39;99.80;;;41.00;;
34695;SDS011;20918;51.138;17.370;2023-12-04T06:10:41;101.50;;;40.70;;
34695;SDS011;20918;51.138;17.370;2023-12-04T06:13:41;102.90;;;41.40;;
34695;SDS011;20918;51.138;17.370;2023-12-04T06:16:42;94.20;;;38.40;;
34695;SDS011;20918;51.138;17.370;2023-12-04T06:19:42;93.60;;;39.30;;
34695;SDS011;20918;51.138;17.370;2023-12-04T06:22:43;95.00;;;40.10;;
34695;SDS011;20918;51.138;17.370;2023-12-04T06:25:44;96.40;;;38.90;;
34695;SDS011;20918;51.138;17.370;2023-12-04T06:28:45;97.00;;;40.30;;
34695;SDS011;20918;51.138;17.370;2023-12-04T06:31:46;101.90;;;40.10;;
34695;SDS011;20918;51.138;17.370;2023-12-04T06:34:47;94.10;;;39.00;;
34695;SDS011;20918;51.138;17.370;2023-12-04T06:37:48;86.20;;;34.60;;
34695;SDS011;20918;51.138;17.370;2023-12-04T06:40:49;88.30;;;35.20;;
34695;SDS011;20918;51.138;17.370;2023-12-04T06:43:50;86.30;;;35.40;;
34695;SDS011;20918;51.138;17.370;2023-12-04T06:46:51;87.10;;;34.80;;
34695;SDS011;20918;51.138;17.370;2023-12-04T06:49:52;99.60;;;38.50;;
34695;SDS011;20918;51.138;17.370;2023-12-04T06:52:52;84.30;;;35.30;;
34695;SDS011;20918;51.138;17.370;2023-12-04T06:55:53;100.70;;;37.20;;
34695;SDS011;20918;51.138;17.370;2023-12-04T06:58:53;93.00;;;37.80;;
34695;SDS011;20918;51.138;17.370;2023-12-04T07:01:54;89.00;;;37.30;;
34695;SDS011;20918;51.138;17.370;2023-12-04T07:04:54;81.20;;;35.20;;
34695;SDS011;20918;51.138;17.370;2023-12-04T07:07:56;85.50;;;36.60;;
34695;SDS011;20918;51.138;17.370;2023-12-04T07:10:56;84.90;;;34.50;;
34695;SDS011;20918;51.138;17.370;2023-12-04T07:13:57;84.10;;;37.90;;
34695;SDS011;20918;51.138;17.370;2023-12-04T07:16:57;94.20;;;42.80;;
34695;SDS011;20918;51.138;17.370;2023-12-04T07:19:58;92.40;;;40.20;;
34695;SDS011;20918;51.138;17.370;2023-12-04T07:22:58;80.90;;;35.90;;
34695;SDS011;20918;51.138;17.370;2023-12-04T07:25:59;85.10;;;35.10;;
34695;SDS011;20918;51.138;17.370;2023-12-04T07:29:00;96.00;;;36.10;;
34695;SDS011;20918;51.138;17.370;2023-12-04T07:32:01;80.30;;;32.30;;
34695;SDS011;20918;51.138;17.370;2023-12-04T07:35:01;80.50;;;33.50;;
34695;SDS011;20918;51.138;17.370;2023-12-04T07:38:02;77.40;;;32.70;;
34695;SDS011;20918;51.138;17.370;2023-12-04T07:41:03;80.10;;;34.20;;
34695;SDS011;20918;51.138;17.370;2023-12-04T07:44:04;85.40;;;35.60;;
34695;SDS011;20918;51.138;17.370;2023-12-04T07:50:05;86.30;;;36.40;;
34695;SDS011;20918;51.138;17.370;2023-12-04T07:53:06;80.70;;;36.20;;
34695;SDS011;20918;51.138;17.370;2023-12-04T07:56:11;83.30;;;36.60;;
34695;SDS011;20918;51.138;17.370;2023-12-04T07:59:12;89.30;;;38.50;;
34695;SDS011;20918;51.138;17.370;2023-12-04T08:02:12;87.60;;;37.50;;
34695;SDS011;20918;51.138;17.370;2023-12-04T08:05:14;88.80;;;40.70;;
34695;SDS011;20918;51.138;17.370;2023-12-04T08:08:15;89.70;;;40.10;;
34695;SDS011;20918;51.138;17.370;2023-12-04T08:11:15;86.90;;;38.90;;
34695;SDS011;20918;51.138;17.370;2023-12-04T08:14:16;81.30;;;36.80;;
34695;SDS011;20918;51.138;17.370;2023-12-04T08:17:16;81.90;;;37.40;;
34695;SDS011;20918;51.138;17.370;2023-12-04T08:20:17;86.90;;;40.70;;
34695;SDS011;20918;51.138;17.370;2023-12-04T08:23:17;78.70;;;37.00;;
34695;SDS011;20918;51.138;17.370;2023-12-04T08:26:22;78.30;;;34.80;;
34695;SDS011;20918;51.138;17.370;2023-12-04T08:29:24;74.10;;;34.40;;
34695;SDS011;20918;51.138;17.370;2023-12-04T08:32:24;69.10;;;34.10;;
34695;SDS011;20918;51.138;17.370;2023-12-04T08:35:26;72.50;;;35.60;;
34695;SDS011;20918;51.138;17.370;2023-12-04T08:38:27;76.50;;;36.90;;
34695;SDS011;20918;51.138;17.370;2023-12-04T08:41:27;74.30;;;34.00;;
34695;SDS011;20918;51.138;17.370;2023-12-04T08:44:28;67.50;;;34.40;;
34695;SDS011;20918;51.138;17.370;2023-12-04T08:47:29;59.40;;;28.50;;
34695;SDS011;20918;51.138;17.370;2023-12-04T08:50:29;52.80;;;27.60;;
34695;SDS011;20918;51.138;17.370;2023-12-04T08:53:30;58.10;;;31.60;;
34695;SDS011;20918;51.138;17.370;2023-12-04T08:56:30;57.00;;;30.60;;
34695;SDS011;20918;51.138;17.370;2023-12-04T08:59:31;61.40;;;30.50;;
34695;SDS011;20918;51.138;17.370;2023-12-04T09:02:32;56.10;;;29.70;;
34695;SDS011;20918;51.138;17.370;2023-12-04T09:05:32;61.10;;;29.00;;
34695;SDS011;20918;51.138;17.370;2023-12-04T09:08:33;53.90;;;29.30;;
34695;SDS011;20918;51.138;17.370;2023-12-04T09:11:33;57.40;;;28.80;;
34695;SDS011;20918;51.138;17.370;2023-12-04T09:14:34;54.10;;;27.60;;
34695;SDS011;20918;51.138;17.370;2023-12-04T09:17:35;50.10;;;27.40;;
34695;SDS011;20918;51.138;17.370;2023-12-04T09:20:35;54.70;;;29.30;;
34695;SDS011;20918;51.138;17.370;2023-12-04T09:23:36;48.10;;;25.30;;
34695;SDS011;20918;51.138;17.370;2023-12-04T09:26:37;48.70;;;25.40;;
34695;SDS011;20918;51.138;17.370;2023-12-04T09:29:38;52.10;;;26.50;;
34695;SDS011;20918;51.138;17.370;2023-12-04T09:32:38;45.20;;;24.60;;
34695;SDS011;20918;51.138;17.370;2023-12-04T09:35:39;46.00;;;25.00;;
34695;SDS011;20918;51.138;17.370;2023-12-04T09:38:40;39.40;;;22.80;;
34695;SDS011;20918;51.138;17.370;2023-12-04T09:41:41;46.10;;;23.90;;
34695;SDS011;20918;51.138;17.370;2023-12-04T09:44:43;43.70;;;24.50;;
34695;SDS011;20918;51.138;17.370;2023-12-04T09:47:44;41.70;;;23.60;;
34695;SDS011;20918;51.138;17.370;2023-12-04T09:50:48;41.40;;;23.20;;
34695;SDS011;20918;51.138;17.370;2023-12-04T09:53:48;47.90;;;23.10;;
34695;SDS011;20918;51.138;17.370;2023-12-04T09:56:50;41.90;;;22.60;;
34695;SDS011;20918;51.138;17.370;2023-12-04T10:02:52;43.00;;;25.70;;
34695;SDS011;20918;51.138;17.370;2023-12-04T10:05:54;48.60;;;28.10;;
34695;SDS011;20918;51.138;17.370;2023-12-04T10:08:55;52.80;;;30.30;;
34695;SDS011;20918;51.138;17.370;2023-12-04T10:11:58;49.10;;;27.10;;
34695;SDS011;20918;51.138;17.370;2023-12-04T10:15:06;40.70;;;22.70;;
34695;SDS011;20918;51.138;17.370;2023-12-04T10:18:10;37.80;;;22.50;;
34695;SDS011;20918;51.138;17.370;2023-12-04T10:21:31;38.80;;;22.20;;
34695;SDS011;20918;51.138;17.370;2023-12-04T10:24:36;92.40;;;46.10;;
34695;SDS011;20918;51.138;17.370;2023-12-04T10:27:38;42.10;;;24.70;;
34695;SDS011;20918;51.138;17.370;2023-12-04T10:30:38;40.00;;;21.90;;
34695;SDS011;20918;51.138;17.370;2023-12-04T10:36:41;35.60;;;20.50;;
34695;SDS011;20918;51.138;17.370;2023-12-04T10:39:48;35.50;;;20.70;;
34695;SDS011;20918;51.138;17.370;2023-12-04T10:42:50;37.20;;;20.90;;
34695;SDS011;20918;51.138;17.370;2023-12-04T10:45:50;35.70;;;19.90;;
34695;SDS011;20918;51.138;17.370;2023-12-04T10:48:51;39.50;;;22.80;;
34695;SDS011;20918;51.138;17.370;2023-12-04T10:51:52;42.10;;;22.60;;
34695;SDS011;20918;51.138;17.370;2023-12-04T10:54:55;40.30;;;21.60;;
34695;SDS011;20918;51.138;17.370;2023-12-04T10:57:59;41.10;;;23.10;;
34695;SDS011;20918;51.138;17.370;2023-12-04T11:01:02;41.30;;;22.70;;
34695;SDS011;20918;51.138;17.370;2023-12-04T11:07:07;36.80;;;21.20;;
34695;SDS011;20918;51.138;17.370;2023-12-04T11:10:10;46.50;;;26.20;;
34695;SDS011;20918;51.138;17.370;2023-12-04T11:13:17;53.30;;;28.80;;
34695;SDS011;20918;51.138;17.370;2023-12-04T11:19:50;60.70;;;30.90;;
34695;SDS011;20918;51.138;17.370;2023-12-04T11:22:55;57.50;;;30.10;;
34695;SDS011;20918;51.138;17.370;2023-12-04T11:25:57;57.30;;;30.70;;
34695;SDS011;20918;51.138;17.370;2023-12-04T11:29:00;62.40;;;31.70;;
34695;SDS011;20918;51.138;17.370;2023-12-04T11:32:04;56.30;;;30.20;;
34695;SDS011;20918;51.138;17.370;2023-12-04T11:35:07;58.90;;;31.40;;
34695;SDS011;20918;51.138;17.370;2023-12-04T11:38:14;53.40;;;28.60;;
34695;SDS011;20918;51.138;17.370;2023-12-04T11:41:16;58.90;;;30.00;;
34695;SDS011;20918;51.138;17.370;2023-12-04T11:44:17;57.30;;;30.00;;
34695;SDS011;20918;51.138;17.370;2023-12-04T11:47:18;54.40;;;28.90;;
34695;SDS011;20918;51.138;17.370;2023-12-04T11:50:19;48.40;;;25.50;;
34695;SDS011;20918;51.138;17.370;2023-12-04T11:53:20;60.70;;;30.60;;
34695;SDS011;20918;51.138;17.370;2023-12-04T11:56:20;54.00;;;27.90;;
34695;SDS011;20918;51.138;17.370;2023-12-04T11:59:21;53.00;;;27.90;;
34695;SDS011;20918;51.138;17.370;2023-12-04T12:05:22;61.70;;;31.60;;
34695;SDS011;20918;51.138;17.370;2023-12-04T12:08:25;59.80;;;30.40;;
34695;SDS011;20918;51.138;17.370;2023-12-04T12:11:29;57.90;;;29.60;;
34695;SDS011;20918;51.138;17.370;2023-12-04T12:20:31;54.20;;;27.40;;
34695;SDS011;20918;51.138;17.370;2023-12-04T12:23:33;54.60;;;24.50;;
34695;SDS011;20918;51.138;17.370;2023-12-04T12:26:33;53.70;;;28.40;;
34695;SDS011;20918;51.138;17.370;2023-12-04T12:29:35;48.40;;;24.70;;
34695;SDS011;20918;51.138;17.370;2023-12-04T12:32:35;57.80;;;28.50;;
34695;SDS011;20918;51.138;17.370;2023-12-04T12:38:37;53.80;;;26.80;;
34695;SDS011;20918;51.138;17.370;2023-12-04T12:41:37;52.20;;;27.10;;
34695;SDS011;20918;51.138;17.370;2023-12-04T12:44:38;58.80;;;30.10;;
34695;SDS011;20918;51.138;17.370;2023-12-04T12:47:41;57.50;;;28.80;;
34695;SDS011;20918;51.138;17.370;2023-12-04T12:50:43;60.90;;;27.70;;
34695;SDS011;20918;51.138;17.370;2023-12-04T12:53:48;54.80;;;27.00;;
34695;SDS011;20918;51.138;17.370;2023-12-04T12:56:48;55.40;;;22.90;;
34695;SDS011;20918;51.138;17.370;2023-12-04T12:59:50;55.10;;;24.90;;
34695;SDS011;20918;51.138;17.370;2023-12-04T13:02:54;57.80;;;27.30;;
34695;SDS011;20918;51.138;17.370;2023-12-04T13:05:54;59.30;;;28.10;;
34695;SDS011;20918;51.138;17.370;2023-12-04T13:08:55;54.70;;;27.70;;
34695;SDS011;20918;51.138;17.370;2023-12-04T13:11:56;56.60;;;28.30;;
34695;SDS011;20918;51.138;17.370;2023-12-04T13:14:56;59.80;;;28.50;;
34695;SDS011;20918;51.138;17.370;2023-12-04T13:17:57;52.80;;;24.10;;
34695;SDS011;20918;51.138;17.370;2023-12-04T13:20:58;53.00;;;25.60;;
34695;SDS011;20918;51.138;17.370;2023-12-04T13:23:58;64.20;;;30.60;;
34695;SDS011;20918;51.138;17.370;2023-12-04T13:30:00;55.90;;;28.10;;
34695;SDS011;20918;51.138;17.370;2023-12-04T13:33:00;54.70;;;25.60;;
34695;SDS011;20918;51.138;17.370;2023-12-04T13:36:01;47.40;;;24.00;;
34695;SDS011;20918;51.138;17.370;2023-12-04T13:39:02;56.70;;;25.90;;
34695;SDS011;20918;51.138;17.370;2023-12-04T13:42:04;37.00;;;18.70;;
34695;SDS011;20918;51.138;17.370;2023-12-04T13:45:23;48.20;;;23.20;;
34695;SDS011;20918;51.138;17.370;2023-12-04T13:48:24;47.70;;;24.70;;
34695;SDS011;20918;51.138;17.370;2023-12-04T13:51:24;49.30;;;25.00;;
34695;SDS011;20918;51.138;17.370;2023-12-04T13:54:25;46.00;;;23.50;;
34695;SDS011;20918;51.138;17.370;2023-12-04T13:57:43;49.00;;;24.90;;
34695;SDS011;20918;51.138;17.370;2023-12-04T14:00:58;41.50;;;21.30;;
34695;SDS011;20918;51.138;17.370;2023-12-04T14:04:02;48.20;;;22.60;;
34695;SDS011;20918;51.138;17.370;2023-12-04T14:07:02;41.70;;;24.00;;
34695;SDS011;20918;51.138;17.370;2023-12-04T14:10:03;44.10;;;20.80;;
34695;SDS011;20918;51.138;17.370;2023-12-04T14:13:04;49.30;;;25.00;;
34695;SDS011;20918;51.138;17.370;2023-12-04T14:16:05;48.50;;;24.20;;
34695;SDS011;20918;51.138;17.370;2023-12-04T14:19:06;44.20;;;22.60;;
34695;SDS011;20918;51.138;17.370;2023-12-04T14:25:07;53.70;;;24.30;;
34695;SDS011;20918;51.138;17.370;2023-12-04T14:31:09;43.90;;;22.40;;
34695;SDS011;20918;51.138;17.370;2023-12-04T14:34:10;46.10;;;23.80;;
34695;SDS011;20918;51.138;17.370;2023-12-04T14:37:11;52.20;;;26.80;;
34695;SDS011;20918;51.138;17.370;2023-12-04T14:40:12;52.50;;;25.10;;
34695;SDS011;20918;51.138;17.370;2023-12-04T14:43:14;54.30;;;26.50;;
34695;SDS011;20918;51.138;17.370;2023-12-04T14:46:14;43.50;;;22.10;;
34695;SDS011;20918;51.138;17.370;2023-12-04T14:49:16;49.90;;;25.30;;
34695;SDS011;20918;51.138;17.370;2023-12-04T14:52:17;45.50;;;24.30;;
34695;SDS011;20918;51.138;17.370;2023-12-04T14:55:17;53.40;;;25.70;;
34695;SDS011;20918;51.138;17.370;2023-12-04T14:58:24;52.00;;;25.30;;
34695;SDS011;20918;51.138;17.370;2023-12-04T15:01:43;53.40;;;24.50;;
34695;SDS011;20918;51.138;17.370;2023-12-04T15:04:46;52.20;;;25.10;;
34695;SDS011;20918;51.138;17.370;2023-12-04T15:08:05;59.30;;;27.30;;
34695;SDS011;20918;51.138;17.370;2023-12-04T15:11:24;54.20;;;25.60;;
34695;SDS011;20918;51.138;17.370;2023-12-04T15:14:40;50.30;;;24.70;;
34695;SDS011;20918;51.138;17.370;2023-12-04T15:18:01;51.20;;;27.30;;
34695;SDS011;20918;51.138;17.370;2023-12-04T15:21:20;46.40;;;26.20;;
34695;SDS011;20918;51.138;17.370;2023-12-04T15:24:22;49.60;;;24.90;;
34695;SDS011;20918;51.138;17.370;2023-12-04T15:27:22;70.00;;;32.60;;
34695;SDS011;20918;51.138;17.370;2023-12-04T15:30:23;61.70;;;29.70;;
34695;SDS011;20918;51.138;17.370;2023-12-04T15:33:24;51.90;;;27.10;;
34695;SDS011;20918;51.138;17.370;2023-12-04T15:36:27;53.10;;;27.20;;
34695;SDS011;20918;51.138;17.370;2023-12-04T15:39:27;58.00;;;28.70;;
34695;SDS011;20918;51.138;17.370;2023-12-04T15:42:28;57.60;;;28.20;;
34695;SDS011;20918;51.138;17.370;2023-12-04T15:45:29;49.40;;;25.40;;
34695;SDS011;20918;51.138;17.370;2023-12-04T15:48:29;55.60;;;27.70;;
34695;SDS011;20918;51.138;17.370;2023-12-04T15:51:30;55.50;;;27.90;;
34695;SDS011;20918;51.138;17.370;2023-12-04T15:54:31;51.20;;;27.30;;
34695;SDS011;20918;51.138;17.370;2023-12-04T15:57:33;60.10;;;29.30;;
34695;SDS011;20918;51.138;17.370;2023-12-04T16:00:33;63.20;;;29.20;;
34695;SDS011;20918;51.138;17.370;2023-12-04T16:03:34;68.20;;;32.00;;
34695;SDS011;20918;51.138;17.370;2023-12-04T16:06:35;72.20;;;35.20;;
34695;SDS011;20918;51.138;17.370;2023-12-04T16:09:37;66.50;;;33.20;;
34695;SDS011;20918;51.138;17.370;2023-12-04T16:12:37;70.40;;;34.40;;
34695;SDS011;20918;51.138;17.370;2023-12-04T16:15:38;64.90;;;32.20;;
34695;SDS011;20918;51.138;17.370;2023-12-04T16:18:39;65.70;;;33.20;;
34695;SDS011;20918;51.138;17.370;2023-12-04T16:21:39;69.70;;;35.10;;
34695;SDS011;20918;51.138;17.370;2023-12-04T16:24:40;68.50;;;33.90;;
34695;SDS011;20918;51.138;17.370;2023-12-04T16:27:40;68.40;;;35.30;;
34695;SDS011;20918;51.138;17.370;2023-12-04T16:30:41;73.00;;;34.70;;
34695;SDS011;20918;51.138;17.370;2023-12-04T16:33:41;69.10;;;34.50;;
34695;SDS011;20918;51.138;17.370;2023-12-04T16:36:42;62.20;;;31.80;;
34695;SDS011;20918;51.138;17.370;2023-12-04T16:39:42;64.70;;;32.00;;
34695;SDS011;20918;51.138;17.370;2023-12-04T16:42:43;63.20;;;32.10;;
34695;SDS011;20918;51.138;17.370;2023-12-04T16:45:44;72.50;;;33.30;;
34695;SDS011;20918;51.138;17.370;2023-12-04T16:48:45;66.30;;;31.20;;
34695;SDS011;20918;51.138;17.370;2023-12-04T16:51:45;63.80;;;32.90;;
34695;SDS011;20918;51.138;17.370;2023-12-04T16:54:46;63.90;;;32.90;;
34695;SDS011;20918;51.138;17.370;2023-12-04T16:57:51;71.50;;;31.60;;
34695;SDS011;20918;51.138;17.370;2023-12-04T17:00:51;62.90;;;31.00;;
34695;SDS011;20918;51.138;17.370;2023-12-04T17:03:52;61.50;;;32.60;;
34695;SDS011;20918;51.138;17.370;2023-12-04T17:06:52;62.20;;;31.40;;
34695;SDS011;20918;51.138;17.370;2023-12-04T17:09:54;55.10;;;31.30;;
34695;SDS011;20918;51.138;17.370;2023-12-04T17:12:54;57.00;;;29.50;;
34695;SDS011;20918;51.138;17.370;2023-12-04T17:15:55;61.70;;;30.20;;
34695;SDS011;20918;51.138;17.370;2023-12-04T17:18:56;70.50;;;36.10;;
34695;SDS011;20918;51.138;17.370;2023-12-04T17:21:58;74.20;;;36.10;;
34695;SDS011;20918;51.138;17.370;2023-12-04T17:25:00;76.20;;;37.40;;
34695;SDS011;20918;51.138;17.370;2023-12-04T17:28:01;74.70;;;37.20;;
34695;SDS011;20918;51.138;17.370;2023-12-04T17:31:02;65.70;;;32.10;;
34695;SDS011;20918;51.138;17.370;2023-12-04T17:34:03;66.10;;;32.90;;
34695;SDS011;20918;51.138;17.370;2023-12-04T17:37:03;58.90;;;30.00;;
34695;SDS011;20918;51.138;17.370;2023-12-04T17:40:04;68.60;;;32.30;;
34695;SDS011;20918;51.138;17.370;2023-12-04T17:43:05;69.90;;;34.40;;
34695;SDS011;20918;51.138;17.370;2023-12-04T17:46:06;56.20;;;24.80;;
34695;SDS011;20918;51.138;17.370;2023-12-04T17:49:08;72.60;;;31.50;;
34695;SDS011;20918;51.138;17.370;2023-12-04T17:52:09;62.10;;;31.00;;
34695;SDS011;20918;51.138;17.370;2023-12-04T17:55:10;63.30;;;31.60;;
34695;SDS011;20918;51.138;17.370;2023-12-04T17:58:11;65.50;;;30.80;;
34695;SDS011;20918;51.138;17.370;2023-12-04T18:01:13;61.10;;;31.50;;
34695;SDS011;20918;51.138;17.370;2023-12-04T18:04:14;72.50;;;32.70;;
34695;SDS011;20918;51.138;17.370;2023-12-04T18:07:15;63.80;;;32.40;;
34695;SDS011;20918;51.138;17.370;2023-12-04T18:10:15;78.90;;;36.70;;
34695;SDS011;20918;51.138;17.370;2023-12-04T18:16:16;67.20;;;29.20;;
34695;SDS011;20918;51.138;17.370;2023-12-04T18:19:17;68.30;;;36.00;;
34695;SDS011;20918;51.138;17.370;2023-12-04T18:22:19;72.80;;;35.80;;
34695;SDS011;20918;51.138;17.370;2023-12-04T18:25:22;82.20;;;36.50;;
34695;SDS011;20918;51.138;17.370;2023-12-04T18:28:23;75.30;;;37.70;;
34695;SDS011;20918;51.138;17.370;2023-12-04T18:34:24;86.40;;;40.00;;
34695;SDS011;20918;51.138;17.370;2023-12-04T18:37:35;119.80;;;61.50;;
34695;SDS011;20918;51.138;17.370;2023-12-04T18:40:45;82.00;;;41.70;;
34695;SDS011;20918;51.138;17.370;2023-12-04T18:43:47;68.20;;;34.80;;
34695;SDS011;20918;51.138;17.370;2023-12-04T18:46:54;72.40;;;35.20;;
34695;SDS011;20918;51.138;17.370;2023-12-04T18:49:56;77.60;;;35.10;;
34695;SDS011;20918;51.138;17.370;2023-12-04T18:53:00;71.30;;;33.80;;
34695;SDS011;20918;51.138;17.370;2023-12-04T18:56:01;74.70;;;37.00;;
34695;SDS011;20918;51.138;17.370;2023-12-04T18:59:02;75.70;;;38.20;;